Back to Top

Language: 

My Weather Underground Personal Weather Station Historical Data with Graphs...

Delerius Weather Station Historical Data
Daily Summary for April 15, 2017 Units:  Metric    English   Both
« Previous Day
Next Day »
Daily Weekly Monthly Yearly Custom
  High: Low: Average:
Temperature: 12.8 °C 5.4 °C 8.3 °C
Dew Point: 6.4 °C 1.7 °C 4 °C
Humidity: 90 % 53 % 75 %
Wind Speed: 32.2 km/h 3.2 km/h 16.9 km/h
Wind Gust: 56.3 km/h - -
Wind:- - WNW
Pressure: 1019.9 hPa 1012.8 hPa -
Precipitation: 0.51 mm    
Historical Graphs
 
 
Tabular Data for April 15, 2017
Time Temperature Dew Point Pressure Wind Wind Speed Wind Gust Humidity Rainfall Rate (Hourly) solar Conditions
00:04 8 °C 6.4 °C 1012.8 hPa WNW 9.7 km/h 20.9 km/h 90 % 0.25 mm 0 W/m2
00:09 7.9 °C 6.3 °C 1012.8 hPa WNW 11.3 km/h 20.9 km/h 90 % 0.25 mm 0 W/m2
00:14 7.9 °C 6.3 °C 1012.8 hPa WNW 11.3 km/h 20.9 km/h 90 % 0 mm 0 W/m2
00:19 7.9 °C 6.3 °C 1012.8 hPa WNW 12.9 km/h 24.1 km/h 90 % 0 mm 0 W/m2
00:24 7.9 °C 6.2 °C 1012.8 hPa WNW 12.9 km/h 24.1 km/h 89 % 0 mm 0 W/m2
00:29 8 °C 6.3 °C 1012.8 hPa WNW 14.5 km/h 20.9 km/h 89 % 0 mm 0 W/m2
00:32 8.1 °C 6.4 °C 1012.8 hPa WNW 14.5 km/h 24.1 km/h 89 % 0 mm 0 W/m2
00:37 8.1 °C 6.4 °C 1013.1 hPa WNW 11.3 km/h 24.1 km/h 89 % 0 mm 0 W/m2
00:42 8.1 °C 6.4 °C 1013.1 hPa NW 9.7 km/h 16.1 km/h 89 % 0 mm 0 W/m2
00:47 8.1 °C 6.2 °C 1013.1 hPa WNW 11.3 km/h 22.5 km/h 88 % 0 mm 0 W/m2
00:52 8.1 °C 6.1 °C 1013.1 hPa WNW 11.3 km/h 22.5 km/h 87 % 0 mm 0 W/m2
01:02 8.1 °C 6.1 °C 1013.1 hPa NW 8 km/h 16.1 km/h 87 % 0 mm 0 W/m2
01:07 8.1 °C 6.1 °C 1013.1 hPa NW 8 km/h 16.1 km/h 87 % 0 mm 0 W/m2
01:12 8.1 °C 6.1 °C 1013.1 hPa WNW 8 km/h 16.1 km/h 87 % 0 mm 0 W/m2
01:17 8.1 °C 6.2 °C 1013.1 hPa WNW 8 km/h 16.1 km/h 88 % 0 mm 0 W/m2
01:22 8 °C 5.9 °C 1013.1 hPa WNW 9.7 km/h 16.1 km/h 87 % 0 mm 0 W/m2
01:27 8 °C 5.9 °C 1013.1 hPa WNW 11.3 km/h 19.3 km/h 87 % 0 mm 0 W/m2
01:32 8 °C 5.9 °C 1013.1 hPa West 12.9 km/h 19.3 km/h 87 % 0 mm 0 W/m2
01:37 7.9 °C 5.7 °C 1013.1 hPa West 11.3 km/h 17.7 km/h 86 % 0 mm 0 W/m2
01:42 7.9 °C 5.7 °C 1013.1 hPa West 11.3 km/h 19.3 km/h 86 % 0 mm 0 W/m2
01:47 7.9 °C 5.7 °C 1013.1 hPa WNW 9.7 km/h 19.3 km/h 86 % 0 mm 0 W/m2
01:52 7.8 °C 5.6 °C 1013.1 hPa WNW 9.7 km/h 16.1 km/h 86 % 0 mm 0 W/m2
01:57 7.8 °C 5.6 °C 1013.1 hPa WNW 9.7 km/h 19.3 km/h 86 % 0 mm 0 W/m2
02:02 7.8 °C 5.6 °C 1013.1 hPa WNW 11.3 km/h 19.3 km/h 86 % 0 mm 0 W/m2
02:07 7.9 °C 5.7 °C 1013.1 hPa WNW 8 km/h 19.3 km/h 86 % 0 mm 0 W/m2
02:12 7.9 °C 5.7 °C 1013.1 hPa WNW 6.4 km/h 12.9 km/h 86 % 0 mm 0 W/m2
02:17 7.9 °C 5.7 °C 1013.1 hPa WNW 8 km/h 16.1 km/h 86 % 0 mm 0 W/m2
02:22 7.9 °C 5.7 °C 1013.1 hPa WNW 9.7 km/h 20.9 km/h 86 % 0 mm 0 W/m2
02:27 7.8 °C 5.4 °C 1013.1 hPa NW 11.3 km/h 22.5 km/h 85 % 0 mm 0 W/m2
02:32 7.8 °C 5.3 °C 1013.1 hPa NW 12.9 km/h 24.1 km/h 84 % 0 mm 0 W/m2
02:37 7.8 °C 5.3 °C 1013.4 hPa WNW 11.3 km/h 24.1 km/h 84 % 0 mm 0 W/m2
02:42 7.7 °C 5 °C 1013.4 hPa WNW 11.3 km/h 20.9 km/h 83 % 0 mm 0 W/m2
02:47 7.6 °C 4.9 °C 1013.4 hPa WNW 11.3 km/h 19.3 km/h 83 % 0 mm 0 W/m2
02:52 7.4 °C 4.5 °C 1013.4 hPa WNW 12.9 km/h 30.6 km/h 82 % 0 mm 0 W/m2
02:57 7.3 °C 4.4 °C 1013.4 hPa WNW 14.5 km/h 30.6 km/h 82 % 0 mm 0 W/m2
03:02 7.2 °C 4.3 °C 1013.4 hPa WNW 12.9 km/h 22.5 km/h 82 % 0 mm 0 W/m2
03:07 7.1 °C 4.4 °C 1013.4 hPa WNW 11.3 km/h 20.9 km/h 83 % 0 mm 0 W/m2
03:12 7.1 °C 4.4 °C 1013.4 hPa WNW 11.3 km/h 17.7 km/h 83 % 0 mm 0 W/m2
03:22 6.8 °C 4.3 °C 1013.4 hPa WNW 8 km/h 14.5 km/h 84 % 0 mm 0 W/m2
03:27 6.8 °C 4.3 °C 1013.4 hPa WNW 8 km/h 14.5 km/h 84 % 0 mm 0 W/m2
03:32 6.7 °C 4.3 °C 1013.4 hPa WNW 6.4 km/h 14.5 km/h 85 % 0 mm 0 W/m2
03:38 6.6 °C 4.3 °C 1013.8 hPa WNW 4.8 km/h 11.3 km/h 85 % 0 mm 0 W/m2
03:43 6.6 °C 4.4 °C 1013.8 hPa WNW 4.8 km/h 11.3 km/h 86 % 0 mm 0 W/m2
03:48 6.5 °C 4.3 °C 1013.8 hPa WNW 4.8 km/h 12.9 km/h 86 % 0 mm 0 W/m2
03:53 6.5 °C 4.3 °C 1013.8 hPa WNW 4.8 km/h 12.9 km/h 86 % 0 mm 0 W/m2
03:58 6.5 °C 4.3 °C 1013.8 hPa WNW 6.4 km/h 12.9 km/h 86 % 0 mm 0 W/m2
04:03 6.4 °C 4.2 °C 1013.8 hPa WNW 6.4 km/h 14.5 km/h 86 % 0 mm 0 W/m2
04:08 6.3 °C 4.1 °C 1013.8 hPa WNW 6.4 km/h 14.5 km/h 86 % 0 mm 0 W/m2
04:13 6.3 °C 4.1 °C 1013.8 hPa WNW 8 km/h 19.3 km/h 86 % 0 mm 0 W/m2
04:18 6.3 °C 4.1 °C 1013.8 hPa WNW 6.4 km/h 19.3 km/h 86 % 0 mm 0 W/m2
04:23 6.3 °C 4.1 °C 1013.8 hPa WNW 4.8 km/h 12.9 km/h 86 % 0 mm 0 W/m2
04:24 6.3 °C 4.1 °C 1013.8 hPa WNW 4.8 km/h 12.9 km/h 86 % 0 mm 0 W/m2
04:29 6.2 °C 4.2 °C 1014.1 hPa WNW 4.8 km/h 12.9 km/h 87 % 0 mm 0 W/m2
04:34 6.2 °C 4.2 °C 1014.1 hPa WNW 4.8 km/h 11.3 km/h 87 % 0 mm 0 W/m2
04:39 6.2 °C 4.2 °C 1014.1 hPa WNW 4.8 km/h 11.3 km/h 87 % 0 mm 0 W/m2
04:44 6.2 °C 4.2 °C 1014.1 hPa WNW 6.4 km/h 16.1 km/h 87 % 0 mm 0 W/m2
04:49 6.1 °C 3.9 °C 1014.1 hPa WNW 9.7 km/h 20.9 km/h 86 % 0 mm 0 W/m2
04:54 6.1 °C 3.9 °C 1014.1 hPa West 12.9 km/h 22.5 km/h 86 % 0 mm 0 W/m2
04:59 6.1 °C 3.8 °C 1014.1 hPa West 14.5 km/h 30.6 km/h 85 % 0 mm 0 W/m2
05:04 6.1 °C 3.8 °C 1014.1 hPa WNW 12.9 km/h 30.6 km/h 85 % 0 mm 0 W/m2
05:09 6.1 °C 3.8 °C 1014.1 hPa WNW 11.3 km/h 20.9 km/h 85 % 0 mm 0 W/m2
05:14 6 °C 3.7 °C 1014.1 hPa WNW 11.3 km/h 20.9 km/h 85 % 0 mm 0 W/m2
05:19 5.9 °C 3.6 °C 1014.1 hPa WNW 9.7 km/h 17.7 km/h 85 % 0 mm 0 W/m2
05:24 5.8 °C 3.3 °C 1014.1 hPa West 9.7 km/h 19.3 km/h 84 % 0 mm 0 W/m2
05:29 5.7 °C 3.2 °C 1014.1 hPa West 9.7 km/h 19.3 km/h 84 % 0 mm 0 W/m2
05:34 5.6 °C 3.1 °C 1014.1 hPa West 9.7 km/h 19.3 km/h 84 % 0 mm 0 W/m2
05:39 5.6 °C 3.1 °C 1014.1 hPa West 9.7 km/h 20.9 km/h 84 % 0 mm 0 W/m2
05:44 5.5 °C 3.2 °C 1014.1 hPa West 9.7 km/h 20.9 km/h 85 % 0 mm 0 W/m2
05:49 5.4 °C 3.1 °C 1014.1 hPa WNW 9.7 km/h 19.3 km/h 85 % 0 mm 0 W/m2
05:54 5.4 °C 3.1 °C 1014.1 hPa WNW 11.3 km/h 22.5 km/h 85 % 0 mm 0 W/m2
05:59 5.5 °C 3.2 °C 1014.1 hPa West 11.3 km/h 22.5 km/h 85 % 0 mm 0 W/m2
06:04 5.6 °C 3.4 °C 1014.1 hPa West 9.7 km/h 17.7 km/h 86 % 0 mm 5 W/m2
06:09 5.6 °C 3.4 °C 1014.1 hPa West 12.9 km/h 22.5 km/h 86 % 0 mm 9 W/m2
06:14 5.6 °C 3.6 °C 1014.1 hPa WNW 14.5 km/h 29 km/h 87 % 0 mm 16 W/m2
06:19 5.6 °C 3.8 °C 1014.4 hPa WNW 16.1 km/h 29 km/h 88 % 0 mm 23 W/m2
06:24 5.6 °C 3.8 °C 1014.1 hPa WNW 16.1 km/h 29 km/h 88 % 0 mm 19 W/m2
06:29 5.4 °C 3.7 °C 1014.1 hPa West 17.7 km/h 30.6 km/h 89 % 0 mm 19 W/m2
06:34 5.4 °C 3.7 °C 1014.1 hPa West 17.7 km/h 30.6 km/h 89 % 0 mm 23 W/m2
06:39 5.4 °C 3.7 °C 1014.1 hPa West 17.7 km/h 25.7 km/h 89 % 0 mm 26 W/m2
06:44 5.4 °C 3.7 °C 1014.1 hPa West 17.7 km/h 29 km/h 89 % 0 mm 30 W/m2
06:49 5.5 °C 3.7 °C 1014.1 hPa West 19.3 km/h 35.4 km/h 88 % 0 mm 35 W/m2
06:54 5.6 °C 3.8 °C 1014.1 hPa West 19.3 km/h 35.4 km/h 88 % 0 mm 40 W/m2
07:00 5.6 °C 3.6 °C 1014.1 hPa West 17.7 km/h 32.2 km/h 87 % 0 mm 49 W/m2
07:05 5.7 °C 3.6 °C 1014.1 hPa West 19.3 km/h 30.6 km/h 86 % 0 mm 63 W/m2
07:10 5.7 °C 3.6 °C 1014.1 hPa West 19.3 km/h 32.2 km/h 86 % 0 mm 88 W/m2
07:15 5.8 °C 3.6 °C 1014.1 hPa West 19.3 km/h 35.4 km/h 86 % 0 mm 81 W/m2
07:20 5.9 °C 3.6 °C 1014.4 hPa West 20.9 km/h 37 km/h 85 % 0 mm 86 W/m2
07:25 6.1 °C 3.6 °C 1014.4 hPa West 24.1 km/h 38.6 km/h 84 % 0 mm 102 W/m2
07:30 6.2 °C 3.7 °C 1014.4 hPa West 24.1 km/h 40.2 km/h 84 % 0 mm 90 W/m2
07:35 6.3 °C 3.6 °C 1014.8 hPa West 22.5 km/h 40.2 km/h 83 % 0 mm 90 W/m2
07:40 6.3 °C 3.6 °C 1014.8 hPa WNW 24.1 km/h 40.2 km/h 83 % 0 mm 100 W/m2
07:45 6.4 °C 3.7 °C 1014.8 hPa WNW 20.9 km/h 40.2 km/h 83 % 0 mm 128 W/m2
07:50 6.5 °C 3.8 °C 1014.8 hPa WNW 20.9 km/h 37 km/h 83 % 0 mm 149 W/m2
07:55 6.6 °C 3.7 °C 1014.8 hPa WNW 22.5 km/h 38.6 km/h 82 % 0 mm 156 W/m2
08:00 6.8 °C 3.9 °C 1014.8 hPa WNW 24.1 km/h 45.1 km/h 82 % 0 mm 155 W/m2
08:05 6.8 °C 3.8 °C 1015.1 hPa WNW 22.5 km/h 45.1 km/h 81 % 0 mm 155 W/m2
08:10 6.9 °C 3.9 °C 1015.1 hPa WNW 20.9 km/h 35.4 km/h 81 % 0 mm 153 W/m2
08:15 6.9 °C 3.9 °C 1015.1 hPa WNW 20.9 km/h 32.2 km/h 81 % 0 mm 165 W/m2
08:20 7 °C 3.9 °C 1015.1 hPa WNW 22.5 km/h 37 km/h 81 % 0 mm 167 W/m2
08:25 7.1 °C 3.9 °C 1015.5 hPa WNW 24.1 km/h 40.2 km/h 80 % 0 mm 151 W/m2
08:30 7.1 °C 3.9 °C 1015.1 hPa WNW 22.5 km/h 40.2 km/h 80 % 0 mm 139 W/m2
08:35 7.1 °C 3.9 °C 1015.5 hPa WNW 20.9 km/h 33.8 km/h 80 % 0 mm 151 W/m2
08:40 7.1 °C 3.9 °C 1015.1 hPa WNW 19.3 km/h 32.2 km/h 80 % 0 mm 163 W/m2
08:45 7.2 °C 3.8 °C 1015.1 hPa WNW 19.3 km/h 33.8 km/h 79 % 0 mm 153 W/m2
08:50 7.2 °C 3.8 °C 1015.1 hPa WNW 20.9 km/h 35.4 km/h 79 % 0 mm 142 W/m2
08:55 7.2 °C 3.6 °C 1015.1 hPa WNW 20.9 km/h 35.4 km/h 78 % 0 mm 153 W/m2
09:00 7.3 °C 3.7 °C 1015.5 hPa WNW 22.5 km/h 40.2 km/h 78 % 0 mm 160 W/m2
09:05 7.3 °C 3.7 °C 1015.5 hPa WNW 22.5 km/h 40.2 km/h 78 % 0 mm 163 W/m2
09:10 7.4 °C 3.8 °C 1015.5 hPa WNW 20.9 km/h 38.6 km/h 78 % 0 mm 163 W/m2
09:15 7.4 °C 3.6 °C 1015.5 hPa WNW 22.5 km/h 38.6 km/h 77 % 0 mm 172 W/m2
09:20 7.6 °C 4 °C 1015.5 hPa WNW 22.5 km/h 37 km/h 78 % 0 mm 178 W/m2
09:25 7.6 °C 4 °C 1015.5 hPa WNW 20.9 km/h 35.4 km/h 78 % 0 mm 186 W/m2
09:35 7.8 °C 4.2 °C 1015.8 hPa WNW 16.1 km/h 30.6 km/h 78 % 0 mm 183 W/m2
09:40 7.8 °C 3.8 °C 1015.8 hPa WNW 16.1 km/h 30.6 km/h 76 % 0 mm 197 W/m2
09:45 7.9 °C 3.9 °C 1015.8 hPa WNW 17.7 km/h 37 km/h 76 % 0 mm 227 W/m2
09:50 8.1 °C 3.9 °C 1015.8 hPa WNW 17.7 km/h 37 km/h 75 % 0 mm 246 W/m2
09:55 8.2 °C 3.8 °C 1016.1 hPa WNW 19.3 km/h 37 km/h 74 % 0 mm 262 W/m2
10:00 8.3 °C 3.9 °C 1016.1 hPa WNW 20.9 km/h 37 km/h 74 % 0 mm 244 W/m2
10:05 8.4 °C 3.8 °C 1016.1 hPa WNW 19.3 km/h 32.2 km/h 73 % 0 mm 225 W/m2
10:10 8.6 °C 4.2 °C 1016.1 hPa WNW 19.3 km/h 32.2 km/h 74 % 0 mm 234 W/m2
10:15 8.6 °C 4.1 °C 1016.1 hPa WNW 17.7 km/h 33.8 km/h 73 % 0 mm 239 W/m2
10:20 8.6 °C 3.8 °C 1016.1 hPa WNW 19.3 km/h 35.4 km/h 72 % 0 mm 244 W/m2
10:25 8.7 °C 3.9 °C 1016.1 hPa West 19.3 km/h 35.4 km/h 72 % 0 mm 237 W/m2
10:30 8.8 °C 3.8 °C 1016.1 hPa WNW 17.7 km/h 29 km/h 71 % 0 mm 253 W/m2
10:35 8.9 °C 3.9 °C 1016.1 hPa WNW 17.7 km/h 29 km/h 71 % 0 mm 276 W/m2
10:40 9 °C 4 °C 1016.5 hPa WNW 17.7 km/h 32.2 km/h 71 % 0 mm 241 W/m2
10:45 9.1 °C 4.1 °C 1016.1 hPa WNW 17.7 km/h 32.2 km/h 71 % 0 mm 420 W/m2
10:55 9.5 °C 4.1 °C 1016.1 hPa WNW 19.3 km/h 35.4 km/h 69 % 0 mm 425 W/m2
11:00 9.8 °C 3.9 °C 1016.1 hPa WNW 19.3 km/h 35.4 km/h 67 % 0 mm 461 W/m2
11:05 10.1 °C 4.1 °C 1016.1 hPa WNW 19.3 km/h 32.2 km/h 66 % 0 mm 336 W/m2
11:10 10.2 °C 3.9 °C 1016.1 hPa WNW 22.5 km/h 38.6 km/h 65 % 0 mm 417 W/m2
11:15 10.1 °C 3.8 °C 1016.1 hPa West 25.7 km/h 40.2 km/h 65 % 0 mm 360 W/m2
11:20 10.3 °C 4 °C 1016.1 hPa WNW 22.5 km/h 40.2 km/h 65 % 0 mm 369 W/m2
11:25 10.4 °C 3.9 °C 1016.1 hPa WNW 19.3 km/h 37 km/h 64 % 0 mm 353 W/m2
11:30 10.5 °C 4.2 °C 1016.5 hPa WNW 19.3 km/h 37 km/h 65 % 0 mm 552 W/m2
11:35 10.7 °C 3.9 °C 1016.1 hPa WNW 22.5 km/h 40.2 km/h 63 % 0 mm 858 W/m2
11:41 10.9 °C 4.1 °C 1016.5 hPa WNW 25.7 km/h 41.8 km/h 63 % 0 mm 278 W/m2
11:46 10.9 °C 3.9 °C 1016.5 hPa WNW 24.1 km/h 41.8 km/h 62 % 0 mm 352 W/m2
11:51 11.1 °C 3.8 °C 1016.5 hPa WNW 22.5 km/h 37 km/h 61 % 0 mm 844 W/m2
11:56 11.4 °C 3.9 °C 1016.5 hPa West 22.5 km/h 37 km/h 60 % 0 mm 645 W/m2
12:01 11.3 °C 3.8 °C 1016.5 hPa West 24.1 km/h 40.2 km/h 60 % 0 mm 185 W/m2
12:06 10.8 °C 3.3 °C 1016.5 hPa West 25.7 km/h 41.8 km/h 60 % 0 mm 318 W/m2
12:11 10.7 °C 3.2 °C 1016.5 hPa West 25.7 km/h 41.8 km/h 60 % 0 mm 339 W/m2
12:16 10.7 °C 3 °C 1016.5 hPa WNW 22.5 km/h 40.2 km/h 59 % 0 mm 329 W/m2
12:21 10.8 °C 3.1 °C 1016.5 hPa WNW 20.9 km/h 38.6 km/h 59 % 0 mm 216 W/m2
12:26 10.7 °C 3.2 °C 1016.5 hPa WNW 22.5 km/h 37 km/h 60 % 0 mm 248 W/m2
12:31 10.7 °C 3.2 °C 1016.5 hPa WNW 20.9 km/h 37 km/h 60 % 0 mm 359 W/m2
12:36 11 °C 4 °C 1016.5 hPa WNW 19.3 km/h 33.8 km/h 62 % 0 mm 1032 W/m2
12:41 11.6 °C 3.8 °C 1016.5 hPa WNW 22.5 km/h 45.1 km/h 59 % 0 mm 299 W/m2
12:46 11.8 °C 4.1 °C 1016.5 hPa West 24.1 km/h 45.1 km/h 59 % 0 mm 1002 W/m2
12:51 12.2 °C 4.2 °C 1016.5 hPa West 22.5 km/h 40.2 km/h 58 % 0 mm 1002 W/m2
12:56 12.2 °C 3.7 °C 1016.5 hPa West 24.1 km/h 40.2 km/h 56 % 0 mm 232 W/m2
13:01 11.7 °C 3.2 °C 1016.5 hPa West 24.1 km/h 40.2 km/h 56 % 0 mm 360 W/m2
13:06 11.8 °C 3.8 °C 1016.5 hPa WNW 20.9 km/h 40.2 km/h 58 % 0 mm 367 W/m2
13:11 12.1 °C 3.6 °C 1016.5 hPa WNW 19.3 km/h 38.6 km/h 56 % 0 mm 200 W/m2
13:16 11.9 °C 3.7 °C 1016.5 hPa WNW 17.7 km/h 38.6 km/h 57 % 0 mm 258 W/m2
13:21 12.2 °C 3.9 °C 1016.5 hPa WNW 19.3 km/h 37 km/h 57 % 0 mm 330 W/m2
13:26 11.9 °C 3.4 °C 1016.5 hPa West 24.1 km/h 41.8 km/h 56 % 0 mm 441 W/m2
13:31 11.6 °C 3.6 °C 1016.8 hPa West 25.7 km/h 43.5 km/h 58 % 0 mm 1007 W/m2
13:36 11.6 °C 3.8 °C 1016.5 hPa West 24.1 km/h 43.5 km/h 59 % 0 mm 241 W/m2
13:41 11.4 °C 3.7 °C 1016.5 hPa WNW 22.5 km/h 37 km/h 59 % 0 mm 209 W/m2
13:46 11.3 °C 4.1 °C 1016.5 hPa WNW 19.3 km/h 35.4 km/h 61 % 0 mm 313 W/m2
13:51 11.4 °C 3.7 °C 1016.5 hPa WNW 17.7 km/h 30.6 km/h 59 % 0 mm 265 W/m2
13:56 11.4 °C 4.2 °C 1016.5 hPa WNW 22.5 km/h 43.5 km/h 61 % 0 mm 925 W/m2
14:01 11.6 °C 4.3 °C 1016.5 hPa WNW 25.7 km/h 43.5 km/h 61 % 0 mm 819 W/m2
14:06 12.1 °C 4.6 °C 1016.5 hPa WNW 25.7 km/h 38.6 km/h 60 % 0 mm 826 W/m2
14:11 12.3 °C 3.8 °C 1016.5 hPa WNW 25.7 km/h 46.7 km/h 56 % 0 mm 981 W/m2
14:16 12.7 °C 4.2 °C 1016.5 hPa West 25.7 km/h 48.3 km/h 56 % 0 mm 765 W/m2
14:21 12.8 °C 3.4 °C 1016.5 hPa WNW 25.7 km/h 48.3 km/h 53 % 0 mm 904 W/m2
14:26 12.6 °C 3.6 °C 1016.5 hPa WNW 25.7 km/h 45.1 km/h 54 % 0 mm 482 W/m2
14:31 12.5 °C 3.9 °C 1016.5 hPa WNW 24.1 km/h 45.1 km/h 56 % 0 mm 914 W/m2
14:36 12.7 °C 3.9 °C 1016.5 hPa WNW 24.1 km/h 46.7 km/h 55 % 0 mm 773 W/m2
14:42 12.6 °C 3.6 °C 1016.8 hPa West 29 km/h 46.7 km/h 54 % 0 mm 176 W/m2
14:47 12.4 °C 3.8 °C 1016.5 hPa WNW 29 km/h 46.7 km/h 56 % 0 mm 833 W/m2
14:57 12.2 °C 3.9 °C 1016.5 hPa WNW 29 km/h 46.7 km/h 57 % 0 mm 749 W/m2
15:02 12.5 °C 4.2 °C 1016.5 hPa WNW 27.4 km/h 46.7 km/h 57 % 0 mm 773 W/m2
15:07 12.7 °C 4.4 °C 1016.5 hPa WNW 25.7 km/h 41.8 km/h 57 % 0 mm 598 W/m2
15:12 12.6 °C 4.3 °C 1016.8 hPa WNW 29 km/h 51.5 km/h 57 % 0 mm 598 W/m2
15:17 12.3 °C 4 °C 1016.8 hPa WNW 30.6 km/h 51.5 km/h 57 % 0 mm 598 W/m2
15:22 12 °C 4.4 °C 1016.8 hPa WNW 29 km/h 46.7 km/h 60 % 0 mm 705 W/m2
15:27 12 °C 4.2 °C 1016.8 hPa West 30.6 km/h 56.3 km/h 59 % 0 mm 336 W/m2
15:32 11.9 °C 4.4 °C 1016.8 hPa West 30.6 km/h 56.3 km/h 60 % 0 mm 677 W/m2
15:37 12.2 °C 5.1 °C 1016.5 hPa WNW 25.7 km/h 46.7 km/h 62 % 0 mm 680 W/m2
15:42 12.4 °C 4.3 °C 1016.5 hPa WNW 24.1 km/h 43.5 km/h 58 % 0 mm 745 W/m2
15:47 12.5 °C 4.2 °C 1016.5 hPa West 30.6 km/h 45.1 km/h 57 % 0 mm 798 W/m2
15:52 12.7 °C 4.4 °C 1016.5 hPa West 32.2 km/h 46.7 km/h 57 % 0 mm 687 W/m2
15:57 12.7 °C 4.4 °C 1016.5 hPa WNW 29 km/h 46.7 km/h 57 % 0 mm 645 W/m2
16:02 12.6 °C 4.3 °C 1016.5 hPa WNW 30.6 km/h 46.7 km/h 57 % 0 mm 633 W/m2
16:07 12.1 °C 3.6 °C 1016.5 hPa WNW 32.2 km/h 46.7 km/h 56 % 0 mm 156 W/m2
16:12 11.7 °C 3.9 °C 1016.5 hPa WNW 30.6 km/h 45.1 km/h 59 % 0 mm 387 W/m2
16:17 11.4 °C 4.2 °C 1016.8 hPa WNW 27.4 km/h 45.1 km/h 61 % 0 mm 283 W/m2
16:22 11.3 °C 4.3 °C 1016.8 hPa WNW 27.4 km/h 43.5 km/h 62 % 0 mm 102 W/m2
16:27 11.2 °C 4.2 °C 1016.8 hPa WNW 25.7 km/h 41.8 km/h 62 % 0 mm 104 W/m2
16:32 10.8 °C 4.3 °C 1017.2 hPa WNW 27.4 km/h 45.1 km/h 64 % 0 mm 98 W/m2
16:37 10.4 °C 4.9 °C 1017.2 hPa WNW 29 km/h 45.1 km/h 69 % 0 mm 88 W/m2
16:42 10 °C 5.9 °C 1017.2 hPa WNW 24.1 km/h 45.1 km/h 76 % 0 mm 517 W/m2
16:48 9.8 °C 6.2 °C 1017.2 hPa WNW 22.5 km/h 35.4 km/h 78 % 0 mm 462 W/m2
16:53 9.8 °C 6.3 °C 1016.8 hPa WNW 19.3 km/h 33.8 km/h 79 % 0 mm 135 W/m2
16:58 9.8 °C 6.2 °C 1016.8 hPa WNW 17.7 km/h 33.8 km/h 78 % 0 mm 148 W/m2
17:03 10.1 °C 6.1 °C 1016.8 hPa WNW 19.3 km/h 33.8 km/h 76 % 0 mm 548 W/m2
17:08 10.6 °C 5.6 °C 1016.8 hPa WNW 24.1 km/h 48.3 km/h 71 % 0.25 mm 432 W/m2
17:13 10.8 °C 4.7 °C 1016.8 hPa WNW 29 km/h 51.5 km/h 66 % 0.25 mm 376 W/m2
17:18 10.9 °C 4.3 °C 1016.8 hPa WNW 30.6 km/h 51.5 km/h 64 % 0.25 mm 373 W/m2
17:23 11 °C 4.4 °C 1016.8 hPa WNW 25.7 km/h 46.7 km/h 64 % 0.25 mm 378 W/m2
17:28 10.9 °C 4.3 °C 1016.8 hPa West 22.5 km/h 38.6 km/h 64 % 0.25 mm 113 W/m2
17:33 10.7 °C 4.4 °C 1016.8 hPa WNW 22.5 km/h 38.6 km/h 65 % 0.25 mm 114 W/m2
17:38 10.5 °C 4.4 °C 1017.2 hPa WNW 17.7 km/h 38.6 km/h 66 % 0.25 mm 84 W/m2
17:43 10.3 °C 4.8 °C 1017.5 hPa WNW 16.1 km/h 38.6 km/h 69 % 0.25 mm 32 W/m2
17:48 9.6 °C 5.8 °C 1017.5 hPa WNW 20.9 km/h 38.6 km/h 77 % 0.51 mm 60 W/m2
17:54 8.7 °C 5.4 °C 1017.5 hPa WNW 25.7 km/h 40.2 km/h 80 % 0.51 mm 93 W/m2
17:59 8.1 °C 5.4 °C 1017.5 hPa WNW 25.7 km/h 40.2 km/h 83 % 0.51 mm 199 W/m2
18:04 7.9 °C 5.6 °C 1017.5 hPa WNW 24.1 km/h 40.2 km/h 85 % 0.51 mm 63 W/m2
18:09 7.7 °C 5.5 °C 1017.5 hPa WNW 20.9 km/h 37 km/h 86 % 0.25 mm 186 W/m2
18:14 7.8 °C 5.8 °C 1017.5 hPa WNW 19.3 km/h 33.8 km/h 87 % 0.25 mm 223 W/m2
18:19 7.9 °C 5.7 °C 1017.2 hPa WNW 19.3 km/h 30.6 km/h 86 % 0.25 mm 199 W/m2
18:24 8.1 °C 5.7 °C 1017.2 hPa WNW 19.3 km/h 33.8 km/h 85 % 0.25 mm 127 W/m2
18:29 8.1 °C 5.4 °C 1017.2 hPa WNW 22.5 km/h 40.2 km/h 83 % 0.25 mm 144 W/m2
18:34 8.2 °C 5.3 °C 1017.2 hPa WNW 24.1 km/h 40.2 km/h 82 % 0.25 mm 165 W/m2
18:39 8.3 °C 5.2 °C 1017.5 hPa WNW 20.9 km/h 37 km/h 81 % 0.25 mm 153 W/m2
18:44 8.5 °C 5.4 °C 1017.5 hPa WNW 17.7 km/h 32.2 km/h 81 % 0.25 mm 153 W/m2
18:49 8.6 °C 5.3 °C 1017.8 hPa WNW 16.1 km/h 32.2 km/h 80 % 0 mm 120 W/m2
18:59 8.6 °C 4.6 °C 1017.8 hPa WNW 17.7 km/h 33.8 km/h 76 % 0 mm 95 W/m2
19:04 8.6 °C 4.6 °C 1017.8 hPa WNW 16.1 km/h 30.6 km/h 76 % 0 mm 84 W/m2
19:09 8.6 °C 4.4 °C 1017.8 hPa WNW 17.7 km/h 33.8 km/h 75 % 0 mm 67 W/m2
19:14 8.5 °C 4.1 °C 1017.8 hPa WNW 17.7 km/h 33.8 km/h 74 % 0 mm 47 W/m2
19:19 8.3 °C 3.9 °C 1017.8 hPa WNW 19.3 km/h 32.2 km/h 74 % 0 mm 44 W/m2
19:24 8.2 °C 3.7 °C 1018.2 hPa WNW 20.9 km/h 33.8 km/h 73 % 0 mm 33 W/m2
19:29 8.1 °C 3.6 °C 1018.2 hPa WNW 20.9 km/h 33.8 km/h 73 % 0 mm 25 W/m2
19:34 8.1 °C 3.6 °C 1018.2 hPa WNW 17.7 km/h 33.8 km/h 73 % 0 mm 21 W/m2
19:39 7.9 °C 3.3 °C 1018.2 hPa WNW 17.7 km/h 29 km/h 73 % 0 mm 19 W/m2
19:44 7.8 °C 3.4 °C 1018.2 hPa WNW 17.7 km/h 30.6 km/h 74 % 0 mm 16 W/m2
19:49 7.7 °C 3.3 °C 1018.2 hPa WNW 17.7 km/h 30.6 km/h 74 % 0 mm 12 W/m2
19:54 7.6 °C 3.3 °C 1018.2 hPa WNW 17.7 km/h 33.8 km/h 74 % 0 mm 9 W/m2
19:59 7.4 °C 3.1 °C 1018.2 hPa WNW 17.7 km/h 33.8 km/h 74 % 0 mm 7 W/m2
20:04 7.4 °C 3.1 °C 1018.2 hPa WNW 19.3 km/h 32.2 km/h 74 % 0 mm 0 W/m2
20:09 7.3 °C 2.9 °C 1018.2 hPa WNW 19.3 km/h 35.4 km/h 74 % 0 mm 0 W/m2
20:14 7.3 °C 2.9 °C 1018.2 hPa WNW 19.3 km/h 37 km/h 74 % 0 mm 0 W/m2
20:19 7.2 °C 2.9 °C 1018.2 hPa WNW 20.9 km/h 37 km/h 74 % 0 mm 0 W/m2
20:24 7.2 °C 2.9 °C 1018.2 hPa WNW 19.3 km/h 33.8 km/h 74 % 0 mm 0 W/m2
20:29 7.1 °C 2.9 °C 1018.2 hPa WNW 16.1 km/h 30.6 km/h 75 % 0 mm 0 W/m2
20:34 7 °C 2.9 °C 1018.5 hPa WNW 16.1 km/h 24.1 km/h 75 % 0 mm 0 W/m2
20:39 6.9 °C 2.8 °C 1018.5 hPa WNW 14.5 km/h 24.1 km/h 75 % 0 mm 0 W/m2
20:44 6.9 °C 2.8 °C 1018.5 hPa WNW 12.9 km/h 24.1 km/h 75 % 0 mm 0 W/m2
20:49 6.8 °C 2.9 °C 1018.8 hPa WNW 11.3 km/h 24.1 km/h 76 % 0 mm 0 W/m2
20:54 6.8 °C 2.9 °C 1018.8 hPa WNW 9.7 km/h 22.5 km/h 76 % 0 mm 0 W/m2
21:00 6.7 °C 2.8 °C 1018.8 hPa NW 9.7 km/h 17.7 km/h 76 % 0 mm 0 W/m2
21:05 6.7 °C 2.9 °C 1018.8 hPa WNW 8 km/h 20.9 km/h 77 % 0 mm 0 W/m2
21:10 6.7 °C 2.9 °C 1018.8 hPa WNW 9.7 km/h 20.9 km/h 77 % 0 mm 0 W/m2
21:15 6.6 °C 2.8 °C 1019.2 hPa WNW 8 km/h 19.3 km/h 77 % 0 mm 0 W/m2
21:20 6.6 °C 2.8 °C 1019.2 hPa NW 8 km/h 24.1 km/h 77 % 0 mm 0 W/m2
21:25 6.6 °C 2.8 °C 1019.2 hPa NW 8 km/h 20.9 km/h 77 % 0 mm 0 W/m2
21:31 6.6 °C 2.8 °C 1019.2 hPa NW 9.7 km/h 20.9 km/h 77 % 0 mm 0 W/m2
21:36 6.6 °C 2.7 °C 1019.2 hPa NW 11.3 km/h 24.1 km/h 76 % 0 mm 0 W/m2
21:41 6.6 °C 2.7 °C 1019.2 hPa NW 11.3 km/h 24.1 km/h 76 % 0 mm 0 W/m2
21:46 6.6 °C 2.7 °C 1019.2 hPa NW 11.3 km/h 22.5 km/h 76 % 0 mm 0 W/m2
21:51 6.6 °C 2.7 °C 1019.2 hPa NW 11.3 km/h 20.9 km/h 76 % 0 mm 0 W/m2
21:56 6.6 °C 2.7 °C 1019.2 hPa NW 11.3 km/h 22.5 km/h 76 % 0 mm 0 W/m2
22:01 6.5 °C 2.6 °C 1019.2 hPa NW 11.3 km/h 22.5 km/h 76 % 0 mm 0 W/m2
22:06 6.5 °C 2.8 °C 1019.2 hPa NW 11.3 km/h 24.1 km/h 77 % 0 mm 0 W/m2
22:11 6.4 °C 2.7 °C 1019.2 hPa WNW 9.7 km/h 24.1 km/h 77 % 0 mm 0 W/m2
22:16 6.4 °C 2.5 °C 1019.2 hPa WNW 11.3 km/h 20.9 km/h 76 % 0 mm 0 W/m2
22:21 6.4 °C 2.7 °C 1019.5 hPa WNW 11.3 km/h 20.9 km/h 77 % 0 mm 0 W/m2
22:26 6.4 °C 2.5 °C 1019.5 hPa WNW 11.3 km/h 24.1 km/h 76 % 0 mm 0 W/m2
22:31 6.3 °C 2.4 °C 1019.5 hPa WNW 11.3 km/h 24.1 km/h 76 % 0 mm 0 W/m2
22:36 6.3 °C 2.4 °C 1019.2 hPa WNW 11.3 km/h 22.5 km/h 76 % 0 mm 0 W/m2
22:41 6.2 °C 2.3 °C 1019.5 hPa WNW 11.3 km/h 22.5 km/h 76 % 0 mm 0 W/m2
22:46 6.2 °C 2.3 °C 1019.2 hPa WNW 12.9 km/h 30.6 km/h 76 % 0 mm 0 W/m2
22:51 6.2 °C 2.3 °C 1019.5 hPa WNW 12.9 km/h 30.6 km/h 76 % 0 mm 0 W/m2
22:56 6.2 °C 2.3 °C 1019.5 hPa WNW 11.3 km/h 22.5 km/h 76 % 0 mm 0 W/m2
23:01 6.1 °C 2.2 °C 1019.5 hPa WNW 8 km/h 17.7 km/h 76 % 0 mm 0 W/m2
23:06 6.1 °C 2.4 °C 1019.5 hPa WNW 6.4 km/h 12.9 km/h 77 % 0 mm 0 W/m2
23:11 6 °C 2.3 °C 1019.5 hPa WNW 3.2 km/h 11.3 km/h 77 % 0 mm 0 W/m2
23:16 5.9 °C 2.2 °C 1019.5 hPa WNW 3.2 km/h 11.3 km/h 77 % 0 mm 0 W/m2
23:21 5.8 °C 2.1 °C 1019.5 hPa WNW 4.8 km/h 11.3 km/h 77 % 0 mm 0 W/m2
23:26 5.7 °C 2 °C 1019.5 hPa WNW 4.8 km/h 14.5 km/h 77 % 0 mm 0 W/m2
23:31 5.6 °C 1.9 °C 1019.5 hPa WNW 4.8 km/h 14.5 km/h 77 % 0 mm 0 W/m2
23:36 5.6 °C 1.9 °C 1019.9 hPa West 4.8 km/h 11.3 km/h 77 % 0 mm 0 W/m2
23:41 5.6 °C 1.7 °C 1019.9 hPa West 4.8 km/h 11.3 km/h 76 % 0 mm 0 W/m2
23:47 5.6 °C 1.7 °C 1019.9 hPa West 4.8 km/h 11.3 km/h 76 % 0 mm 0 W/m2
23:52 5.5 °C 1.8 °C 1019.9 hPa West 4.8 km/h 11.3 km/h 77 % 0 mm 0 W/m2
23:57 5.4 °C 1.7 °C 1019.9 hPa West 4.8 km/h 11.3 km/h 77 % 0 mm 0 W/m2
Delerius-Weather
Compliments of Weather Underground - 2.25 mb

Data updates at regular intervals.